createdAt,value
2023-05-24T00:01:04.798Z,7.67
2023-05-24T00:03:35.059Z,11.03
2023-05-24T00:06:03.917Z,9.43
2023-05-24T00:08:32.154Z,10.73
2023-05-24T00:11:01.779Z,11.33
2023-05-24T00:13:30.154Z,11.73
2023-05-24T00:15:58.383Z,11.83
2023-05-24T00:18:26.630Z,11.30
2023-05-24T00:20:57.218Z,9.63
2023-05-24T00:23:25.771Z,9.70
2023-05-24T00:25:57.597Z,12.67
2023-05-24T00:28:27.201Z,9.03
2023-05-24T00:30:55.488Z,9.87
2023-05-24T00:33:24.356Z,10.37
2023-05-24T00:35:56.442Z,9.33
2023-05-24T00:38:25.247Z,10.47
2023-05-24T00:40:56.393Z,14.17
2023-05-24T00:43:25.100Z,10.23
2023-05-24T00:46:13.327Z,15.93
2023-05-24T00:48:42.095Z,10.50
2023-05-24T00:51:10.640Z,10.30
2023-05-24T00:53:39.083Z,13.13
2023-05-24T00:56:08.546Z,10.97
2023-05-24T00:58:37.176Z,9.33
2023-05-24T01:01:07.071Z,12.33
2023-05-24T01:03:36.278Z,8.47
2023-05-24T01:06:08.344Z,12.57
2023-05-24T01:09:09.411Z,11.13
2023-05-24T01:11:48.814Z,10.87
2023-05-24T01:14:23.805Z,14.23
2023-05-24T01:16:58.101Z,9.80
2023-05-24T01:19:44.908Z,10.67
2023-05-24T01:22:25.723Z,9.90
2023-05-24T01:25:04.637Z,14.23
2023-05-24T01:27:35.647Z,12.10
2023-05-24T01:30:04.782Z,11.77
2023-05-24T01:32:33.734Z,14.47
2023-05-24T01:35:02.012Z,14.27
2023-05-24T01:37:30.279Z,8.90
2023-05-24T01:39:58.955Z,11.43
2023-05-24T01:42:28.702Z,9.70
2023-05-24T01:45:05.720Z,8.70
2023-05-24T01:47:46.979Z,14.73
2023-05-24T01:50:23.804Z,11.23
2023-05-24T01:52:54.650Z,11.77
2023-05-24T01:55:23.799Z,12.30
2023-05-24T01:57:52.808Z,9.73
2023-05-24T02:00:23.577Z,9.73
2023-05-24T02:02:55.584Z,9.90
2023-05-24T02:05:24.625Z,9.60
2023-05-24T02:07:54.625Z,9.90
2023-05-24T02:10:26.563Z,13.63
2023-05-24T02:12:54.852Z,9.80
2023-05-24T02:15:24.676Z,10.97
2023-05-24T02:17:54.738Z,8.67
2023-05-24T02:20:23.931Z,13.87
2023-05-24T02:22:52.293Z,8.97
2023-05-24T02:25:20.803Z,11.40
2023-05-24T02:27:49.332Z,11.17
2023-05-24T02:30:17.622Z,11.07
2023-05-24T02:32:47.292Z,11.37
2023-05-24T02:35:15.744Z,10.07
2023-05-24T02:37:44.067Z,10.20
2023-05-24T02:40:13.470Z,10.43
2023-05-24T02:42:41.874Z,13.63
2023-05-24T02:45:10.813Z,12.07
2023-05-24T02:47:39.217Z,11.03
2023-05-24T02:50:10.069Z,10.23
2023-05-24T02:52:38.450Z,10.37
2023-05-24T02:55:08.569Z,9.40
2023-05-24T02:57:37.914Z,10.57
2023-05-24T03:00:09.182Z,13.43
2023-05-24T03:02:38.821Z,8.53
2023-05-24T03:05:09.494Z,10.23
2023-05-24T03:07:37.713Z,8.40
2023-05-24T03:10:08.811Z,7.67
2023-05-24T03:12:37.206Z,7.83
2023-05-24T03:15:06.194Z,11.10
2023-05-24T03:17:34.482Z,13.40
2023-05-24T03:20:02.898Z,11.17
2023-05-24T03:22:34.279Z,11.87
2023-05-24T03:25:04.622Z,10.47
2023-05-24T03:27:32.916Z,14.70
2023-05-24T03:30:01.152Z,7.93
2023-05-24T03:32:32.636Z,12.23
2023-05-24T03:35:01.633Z,11.00
2023-05-24T03:37:30.426Z,14.53
2023-05-24T03:40:00.026Z,12.60
2023-05-24T03:42:51.695Z,13.93
2023-05-24T03:45:34.458Z,11.00
2023-05-24T03:48:06.794Z,13.30
2023-05-24T03:50:35.902Z,14.60
2023-05-24T03:53:04.255Z,13.20
2023-05-24T03:55:34.051Z,12.73
2023-05-24T03:58:02.304Z,15.43
2023-05-24T04:00:30.670Z,14.03
2023-05-24T04:03:00.261Z,10.63
2023-05-24T04:05:30.392Z,15.67
2023-05-24T04:07:58.733Z,15.13
2023-05-24T04:10:37.266Z,15.30
2023-05-24T04:13:05.514Z,12.43
2023-05-24T04:15:38.040Z,16.70
2023-05-24T04:18:06.722Z,11.53
2023-05-24T04:20:36.535Z,10.43
2023-05-24T04:23:04.808Z,12.77
2023-05-24T04:25:33.518Z,14.37
2023-05-24T04:28:03.957Z,12.60
2023-05-24T04:30:33.862Z,13.43
2023-05-24T04:33:02.251Z,11.47
2023-05-24T04:35:31.349Z,13.93
2023-05-24T04:38:00.225Z,12.43
2023-05-24T04:40:28.524Z,12.00
2023-05-24T04:42:59.505Z,11.27
2023-05-24T04:45:30.783Z,13.20
2023-05-24T04:47:59.059Z,11.00
2023-05-24T04:50:27.323Z,9.07
2023-05-24T04:52:55.540Z,11.87
2023-05-24T04:55:23.853Z,11.63
2023-05-24T04:57:52.097Z,16.97
2023-05-24T05:00:21.393Z,14.63
2023-05-24T05:02:51.398Z,14.50
2023-05-24T05:05:20.182Z,16.00
2023-05-24T05:07:48.475Z,13.53
2023-05-24T05:10:16.825Z,12.43
2023-05-24T05:12:45.048Z,13.37
2023-05-24T05:15:13.677Z,13.97
2023-05-24T05:17:42.202Z,15.10
2023-05-24T05:20:12.067Z,12.13
2023-05-24T05:22:40.460Z,15.57
2023-05-24T05:25:09.406Z,14.83
2023-05-24T05:27:37.616Z,15.50
2023-05-24T05:30:06.949Z,11.87
2023-05-24T05:32:35.640Z,13.33
2023-05-24T05:35:03.975Z,11.23
2023-05-24T05:37:33.672Z,12.23
2023-05-24T05:40:01.922Z,12.27
2023-05-24T05:42:30.171Z,15.03
2023-05-24T05:44:58.678Z,10.63
2023-05-24T05:47:26.998Z,16.97
2023-05-24T05:49:55.366Z,10.80
2023-05-24T05:52:23.676Z,11.57
2023-05-24T05:54:53.293Z,16.30
2023-05-24T05:57:24.267Z,13.70
2023-05-24T05:59:52.893Z,20.23
2023-05-24T06:02:22.956Z,16.57
2023-05-24T06:04:51.551Z,12.43
2023-05-24T06:07:20.127Z,11.70
2023-05-24T06:09:48.388Z,15.33
2023-05-24T06:12:18.144Z,12.77
2023-05-24T06:14:48.364Z,11.20
2023-05-24T06:17:16.628Z,11.27
2023-05-24T06:19:44.871Z,11.70
2023-05-24T06:22:13.145Z,11.87
2023-05-24T06:24:41.381Z,13.73
2023-05-24T06:27:09.616Z,15.97
2023-05-24T06:29:39.548Z,11.50
2023-05-24T06:32:08.032Z,16.43
2023-05-24T06:34:36.243Z,13.90
2023-05-24T06:37:04.834Z,20.37
2023-05-24T06:39:33.054Z,13.33
2023-05-24T06:42:01.952Z,15.70
2023-05-24T06:44:34.567Z,14.93
2023-05-24T06:47:05.871Z,14.03
2023-05-24T06:49:34.538Z,16.20
2023-05-24T06:52:02.826Z,18.10
2023-05-24T06:54:31.070Z,12.17
2023-05-24T06:56:59.313Z,16.57
2023-05-24T06:59:28.291Z,16.80
2023-05-24T07:01:58.903Z,20.20
2023-05-24T07:04:29.812Z,9.87
2023-05-24T07:06:58.503Z,14.57
2023-05-24T07:09:27.000Z,14.80
2023-05-24T07:11:55.267Z,16.73
2023-05-24T07:14:25.954Z,16.37
2023-05-24T07:16:57.508Z,16.30
2023-05-24T07:19:29.347Z,14.40
2023-05-24T07:21:59.366Z,15.40
2023-05-24T07:24:27.645Z,12.87
2023-05-24T07:26:56.791Z,15.82
2023-05-24T07:29:26.078Z,12.87
2023-05-24T07:31:56.699Z,13.65
2023-05-24T07:34:27.624Z,13.43
2023-05-24T07:36:56.069Z,14.00
2023-05-24T07:39:27.321Z,11.40
2023-05-24T07:41:55.784Z,11.90
2023-05-24T07:44:24.430Z,13.00
2023-05-24T07:46:52.714Z,12.38
2023-05-24T07:49:21.099Z,10.13
2023-05-24T07:51:49.689Z,13.55
2023-05-24T07:54:17.920Z,12.98
2023-05-24T07:56:47.488Z,12.63
2023-05-24T07:59:15.948Z,14.88
2023-05-24T08:01:44.372Z,13.95
2023-05-24T08:04:12.630Z,13.25
2023-05-24T08:06:41.012Z,15.68
2023-05-24T08:09:10.004Z,16.35
2023-05-24T08:11:38.231Z,18.27
2023-05-24T08:14:07.998Z,12.32
2023-05-24T08:16:36.425Z,12.43
2023-05-24T08:19:04.696Z,15.45
2023-05-24T08:21:33.861Z,13.35
2023-05-24T08:24:02.128Z,12.82
2023-05-24T08:26:30.445Z,13.60
2023-05-24T08:28:58.673Z,15.45
2023-05-24T08:31:28.313Z,13.07
2023-05-24T08:33:57.735Z,12.95
2023-05-24T08:36:26.127Z,12.10
2023-05-24T08:38:54.421Z,13.82
2023-05-24T08:41:22.711Z,8.85
2023-05-24T08:43:51.648Z,11.02
2023-05-24T08:46:20.143Z,12.60
2023-05-24T08:48:49.939Z,13.07
2023-05-24T08:51:18.380Z,16.02
2023-05-24T08:53:50.106Z,13.05
2023-05-24T08:56:19.429Z,12.73
2023-05-24T08:58:47.762Z,10.25
2023-05-24T09:01:17.801Z,12.75
2023-05-24T09:03:47.893Z,10.07
2023-05-24T09:06:19.314Z,12.23
2023-05-24T09:08:50.278Z,11.40
2023-05-24T09:11:19.604Z,12.20
2023-05-24T09:13:49.335Z,16.85
2023-05-24T09:16:17.878Z,8.13
2023-05-24T09:18:46.232Z,7.88
2023-05-24T09:21:14.840Z,11.55
2023-05-24T09:23:45.930Z,10.63
2023-05-24T09:26:14.623Z,13.38
2023-05-24T09:28:44.269Z,9.77
2023-05-24T09:31:13.873Z,12.68
2023-05-24T09:33:42.227Z,9.07
2023-05-24T09:36:11.795Z,13.88
2023-05-24T09:38:40.004Z,10.25
2023-05-24T09:41:11.031Z,12.60
2023-05-24T09:43:49.525Z,8.63
2023-05-24T09:46:19.096Z,10.68
2023-05-24T09:48:57.734Z,11.38
2023-05-24T09:51:26.425Z,10.75
2023-05-24T09:53:58.404Z,9.13
2023-05-24T09:56:28.274Z,8.85
2023-05-24T09:58:57.150Z,8.40
2023-05-24T10:01:26.878Z,10.75
2023-05-24T10:03:56.383Z,11.48
2023-05-24T10:06:25.112Z,14.52
2023-05-24T10:08:54.841Z,10.38
2023-05-24T10:11:23.068Z,10.25
2023-05-24T10:13:52.908Z,10.88
2023-05-24T10:16:21.600Z,11.18
2023-05-24T10:18:50.828Z,12.85
2023-05-24T10:21:22.759Z,12.32
2023-05-24T10:23:53.665Z,9.32
2023-05-24T10:26:26.228Z,9.18
2023-05-24T10:29:01.177Z,9.63
2023-05-24T10:31:32.525Z,11.18
2023-05-24T10:34:08.001Z,8.48
2023-05-24T10:36:39.984Z,13.75
2023-05-24T10:39:12.498Z,9.93
2023-05-24T10:41:42.203Z,11.93
2023-05-24T10:44:19.699Z,11.40
2023-05-24T10:47:10.828Z,10.27
2023-05-24T10:49:40.215Z,10.25
2023-05-24T10:52:10.134Z,11.45
2023-05-24T10:54:44.695Z,9.55
2023-05-24T10:57:24.566Z,10.35
2023-05-24T10:59:58.450Z,8.07
2023-05-24T11:02:29.953Z,8.13
2023-05-24T11:05:00.351Z,10.68
2023-05-24T11:07:28.813Z,10.15
2023-05-24T11:09:59.860Z,7.07
2023-05-24T11:12:34.641Z,10.70
2023-05-24T11:15:04.698Z,11.75
2023-05-24T11:18:12.817Z,9.20
2023-05-24T11:20:44.646Z,13.68
2023-05-24T11:23:13.298Z,8.35
2023-05-24T11:25:41.872Z,4.97
2023-05-24T11:28:12.014Z,10.18
2023-05-24T11:30:42.502Z,6.90
2023-05-24T11:33:18.732Z,10.25
2023-05-24T11:35:47.336Z,10.18
2023-05-24T11:38:17.096Z,11.35
2023-05-24T11:40:47.052Z,11.45
2023-05-24T11:43:16.792Z,8.23
2023-05-24T11:45:48.778Z,10.85
2023-05-24T11:48:17.646Z,6.32
2023-05-24T11:50:49.699Z,6.50
2023-05-24T11:53:20.480Z,6.97
2023-05-24T11:55:48.841Z,7.82
2023-05-24T11:58:24.519Z,10.32
2023-05-24T12:00:54.137Z,10.05
2023-05-24T12:03:22.474Z,8.23
2023-05-24T12:05:51.422Z,10.27
2023-05-24T12:08:20.468Z,6.95
2023-05-24T12:10:51.741Z,5.72
2023-05-24T12:13:23.212Z,8.75
2023-05-24T12:15:56.575Z,10.27
2023-05-24T12:18:26.848Z,8.75
2023-05-24T12:20:55.354Z,6.32
2023-05-24T12:23:25.786Z,5.68
2023-05-24T12:25:59.862Z,7.57
2023-05-24T12:28:28.561Z,7.53
2023-05-24T12:30:58.931Z,7.43
2023-05-24T12:33:27.267Z,5.53
2023-05-24T12:35:56.301Z,6.43
2023-05-24T12:38:26.183Z,6.50
2023-05-24T12:41:11.599Z,10.40
2023-05-24T12:43:44.423Z,9.05
2023-05-24T12:46:14.400Z,9.70
2023-05-24T12:48:43.085Z,6.65
2023-05-24T12:51:11.895Z,10.93
2023-05-24T12:53:40.400Z,7.35
2023-05-24T12:56:09.284Z,6.47
2023-05-24T12:58:37.571Z,8.30
2023-05-24T13:01:05.944Z,6.30
2023-05-24T13:03:36.173Z,9.43
2023-05-24T13:06:04.607Z,10.15
2023-05-24T13:08:32.838Z,9.60
2023-05-24T13:11:01.110Z,6.45
2023-05-24T13:13:29.780Z,9.95
2023-05-24T13:15:58.248Z,9.13
2023-05-24T13:18:27.212Z,8.75
2023-05-24T13:20:57.736Z,6.35
2023-05-24T13:23:26.352Z,7.85
2023-05-24T13:25:54.731Z,9.60
2023-05-24T13:28:23.298Z,8.02
2023-05-24T13:30:51.726Z,6.97
2023-05-24T13:33:20.442Z,8.13
2023-05-24T13:35:49.704Z,6.45
2023-05-24T13:38:19.448Z,7.40
2023-05-24T13:40:48.324Z,9.52
2023-05-24T13:43:16.946Z,7.80
2023-05-24T13:45:45.599Z,7.50
2023-05-24T13:48:14.232Z,6.38
2023-05-24T13:50:42.877Z,7.85
2023-05-24T13:53:11.373Z,8.45
2023-05-24T13:55:41.050Z,7.20
2023-05-24T13:58:09.382Z,7.97
2023-05-24T14:00:37.709Z,5.70
2023-05-24T14:03:06.460Z,8.25
2023-05-24T14:05:35.144Z,6.55
2023-05-24T14:08:06.914Z,7.78
2023-05-24T14:10:36.899Z,5.45
2023-05-24T14:15:39.121Z,6.32
2023-05-24T14:18:08.648Z,13.15
2023-05-24T14:20:38.123Z,8.75
2023-05-24T14:23:08.032Z,7.00
2023-05-24T14:25:36.517Z,7.28
2023-05-24T14:28:08.520Z,7.43
2023-05-24T14:30:38.181Z,6.35
2023-05-24T14:33:08.360Z,5.10
2023-05-24T14:35:39.976Z,7.93
2023-05-24T14:38:10.085Z,5.07
2023-05-24T14:40:40.113Z,6.10
2023-05-24T14:43:10.801Z,7.82
2023-05-24T14:45:41.264Z,8.40
2023-05-24T14:48:12.349Z,10.00
2023-05-24T14:50:42.176Z,5.80
2023-05-24T14:53:12.403Z,9.55
2023-05-24T14:55:43.132Z,6.70
2023-05-24T14:58:14.151Z,7.35
2023-05-24T15:00:43.962Z,7.95
2023-05-24T15:03:14.585Z,6.85
2023-05-24T15:05:43.637Z,6.15
2023-05-24T15:08:12.218Z,6.35
2023-05-24T15:10:41.023Z,7.03
2023-05-24T15:13:09.547Z,6.65
2023-05-24T15:15:39.342Z,7.47
2023-05-24T15:18:08.218Z,10.90
2023-05-24T15:20:36.785Z,7.18
2023-05-24T15:23:05.268Z,5.03
2023-05-24T15:25:33.517Z,6.85
2023-05-24T15:28:02.050Z,8.95
2023-05-24T15:30:30.310Z,7.80
2023-05-24T15:32:59.926Z,7.00
2023-05-24T15:35:28.264Z,6.30
2023-05-24T15:37:56.538Z,7.10
2023-05-24T15:40:25.037Z,6.65
2023-05-24T15:42:53.991Z,9.32
2023-05-24T15:45:22.393Z,9.05
2023-05-24T15:47:50.923Z,8.10
2023-05-24T15:50:31.844Z,10.13
2023-05-24T15:53:09.250Z,8.85
2023-05-24T15:55:39.076Z,8.63
2023-05-24T15:58:07.463Z,9.15
2023-05-24T16:00:35.728Z,10.43
2023-05-24T16:03:04.150Z,8.27
2023-05-24T16:05:33.890Z,11.82
2023-05-24T16:08:02.602Z,10.00
2023-05-24T16:10:31.021Z,11.05
2023-05-24T16:12:59.710Z,8.90
2023-05-24T16:15:30.085Z,10.57
2023-05-24T16:17:58.614Z,11.13
2023-05-24T16:20:26.942Z,9.43
2023-05-24T16:22:56.539Z,9.40
2023-05-24T16:25:25.840Z,6.70
2023-05-24T16:27:56.374Z,10.20
2023-05-24T16:30:25.612Z,9.73
2023-05-24T16:32:54.171Z,7.60
2023-05-24T16:35:25.471Z,9.32
2023-05-24T16:37:55.986Z,8.82
2023-05-24T16:40:25.710Z,9.80
2023-05-24T16:42:54.425Z,9.60
2023-05-24T16:45:22.711Z,9.13
2023-05-24T16:47:51.213Z,8.05
2023-05-24T16:50:19.567Z,10.75
2023-05-24T16:52:48.519Z,8.02
2023-05-24T16:55:17.108Z,8.35
2023-05-24T16:57:46.740Z,8.57
2023-05-24T17:00:16.651Z,10.75
2023-05-24T17:02:45.173Z,6.40
2023-05-24T17:05:16.867Z,8.20
2023-05-24T17:07:45.579Z,11.38
2023-05-24T17:10:13.924Z,10.30
2023-05-24T17:12:42.401Z,7.57
2023-05-24T17:15:12.993Z,10.93
2023-05-24T17:17:41.360Z,10.00
2023-05-24T17:20:10.555Z,10.77
2023-05-24T17:22:38.921Z,8.65
2023-05-24T17:25:08.419Z,11.70
2023-05-24T17:27:36.761Z,13.23
2023-05-24T17:30:06.319Z,10.77
2023-05-24T17:32:36.040Z,14.27
2023-05-24T17:35:04.645Z,13.15
2023-05-24T17:37:32.850Z,8.45
2023-05-24T17:40:01.112Z,13.13
2023-05-24T17:42:29.582Z,10.85
2023-05-24T17:44:57.852Z,11.52
2023-05-24T17:47:26.171Z,8.32
2023-05-24T17:49:55.849Z,9.32
2023-05-24T17:52:24.081Z,10.77
2023-05-24T17:54:52.344Z,8.13
2023-05-24T17:57:20.729Z,10.75
2023-05-24T17:59:49.072Z,12.13
2023-05-24T18:02:17.357Z,9.00
2023-05-24T18:04:45.752Z,10.70
2023-05-24T18:07:15.841Z,9.05
2023-05-24T18:09:44.096Z,12.35
2023-05-24T18:12:12.773Z,11.35
2023-05-24T18:14:41.783Z,11.13
2023-05-24T18:17:10.169Z,10.68
2023-05-24T18:19:38.721Z,13.07
2023-05-24T18:22:07.045Z,9.48
2023-05-24T18:24:36.730Z,12.48
2023-05-24T18:27:05.327Z,12.63
2023-05-24T18:29:34.542Z,13.05
2023-05-24T18:32:02.893Z,10.45
2023-05-24T18:34:31.323Z,9.50
2023-05-24T18:36:59.610Z,12.55
2023-05-24T18:39:27.918Z,12.30
2023-05-24T18:41:57.630Z,12.40
2023-05-24T18:44:25.931Z,11.95
2023-05-24T18:46:56.127Z,11.38
2023-05-24T18:49:24.717Z,9.00
2023-05-24T18:51:53.048Z,9.05
2023-05-24T18:54:21.384Z,10.05
2023-05-24T18:56:49.756Z,10.82
2023-05-24T18:59:21.655Z,10.55
2023-05-24T19:01:49.990Z,11.50
2023-05-24T19:04:18.383Z,10.00
2023-05-24T19:06:46.673Z,13.68
2023-05-24T19:09:15.061Z,16.25
2023-05-24T19:11:45.638Z,14.50
2023-05-24T19:14:17.744Z,12.45
2023-05-24T19:16:47.769Z,12.27
2023-05-24T19:19:16.200Z,12.77
2023-05-24T19:21:44.421Z,9.73
2023-05-24T19:24:12.628Z,13.05
2023-05-24T19:26:40.919Z,9.98
2023-05-24T19:29:09.170Z,13.32
2023-05-24T19:31:37.444Z,11.07
2023-05-24T19:34:09.893Z,11.88
2023-05-24T19:37:01.335Z,12.88
2023-05-24T19:39:29.754Z,16.98
2023-05-24T19:41:57.990Z,12.98
2023-05-24T19:44:26.320Z,11.88
2023-05-24T19:46:54.676Z,13.55
2023-05-24T19:49:24.341Z,14.30
2023-05-24T19:51:52.986Z,13.85
2023-05-24T19:54:21.544Z,10.55
2023-05-24T19:56:51.933Z,10.43
2023-05-24T19:59:20.450Z,10.38
2023-05-24T20:01:48.757Z,11.17
2023-05-24T20:04:17.163Z,12.40
2023-05-24T20:06:46.829Z,10.23
2023-05-24T20:09:18.762Z,11.53
2023-05-24T20:11:47.276Z,13.57
2023-05-24T20:14:15.653Z,14.20
2023-05-24T20:16:44.095Z,11.97
2023-05-24T20:19:13.361Z,10.47
2023-05-24T20:21:41.609Z,10.10
2023-05-24T20:24:11.267Z,10.13
2023-05-24T20:26:39.561Z,10.80
2023-05-24T20:29:07.836Z,9.10
2023-05-24T20:31:37.416Z,7.70
2023-05-24T20:34:05.786Z,10.47
2023-05-24T20:36:34.036Z,10.03
2023-05-24T20:39:02.368Z,9.40
2023-05-24T20:41:32.350Z,10.27
2023-05-24T20:44:00.656Z,8.90
2023-05-24T20:46:29.139Z,8.50
2023-05-24T20:48:57.687Z,8.03
2023-05-24T20:51:25.961Z,8.40
2023-05-24T20:53:54.246Z,8.57
2023-05-24T20:56:24.045Z,8.83
2023-05-24T20:58:54.363Z,9.50
2023-05-24T21:01:23.166Z,10.03
2023-05-24T21:03:51.476Z,7.67
2023-05-24T21:06:20.845Z,9.47
2023-05-24T21:08:49.196Z,8.03
2023-05-24T21:11:17.500Z,8.63
2023-05-24T21:13:46.402Z,10.30
2023-05-24T21:16:16.186Z,10.00
2023-05-24T21:18:44.466Z,8.43
2023-05-24T21:21:13.007Z,5.80
2023-05-24T21:23:41.266Z,10.57
2023-05-24T21:26:09.738Z,10.23
2023-05-24T21:28:38.150Z,7.73
2023-05-24T21:31:07.998Z,9.50
2023-05-24T21:33:39.645Z,8.13
2023-05-24T21:36:08.361Z,8.13
2023-05-24T21:38:36.584Z,8.53
2023-05-24T21:41:05.834Z,9.30
2023-05-24T21:43:34.164Z,10.37
2023-05-24T21:46:02.395Z,9.63
2023-05-24T21:48:30.670Z,11.90
2023-05-24T21:51:00.305Z,6.73
2023-05-24T21:53:28.645Z,6.10
2023-05-24T21:55:57.417Z,5.93
2023-05-24T21:58:26.298Z,8.47
2023-05-24T22:00:55.658Z,8.57
2023-05-24T22:03:26.911Z,5.97
2023-05-24T22:05:55.263Z,8.53
2023-05-24T22:08:24.933Z,5.73
2023-05-24T22:10:53.274Z,7.87
2023-05-24T22:13:21.531Z,7.73
2023-05-24T22:15:49.949Z,5.63
2023-05-24T22:18:18.708Z,6.20
2023-05-24T22:20:47.132Z,6.70
2023-05-24T22:23:15.846Z,7.50
2023-05-24T22:25:45.564Z,7.60
2023-05-24T22:28:14.312Z,7.27
2023-05-24T22:30:42.542Z,8.73
2023-05-24T22:33:10.790Z,6.47
2023-05-24T22:35:39.026Z,5.90
2023-05-24T22:38:07.321Z,9.60
2023-05-24T22:40:36.740Z,9.40
2023-05-24T22:43:06.348Z,6.23
2023-05-24T22:45:34.623Z,8.50
2023-05-24T22:48:03.390Z,9.27
2023-05-24T22:50:32.277Z,8.17
2023-05-24T22:53:00.563Z,7.43
2023-05-24T22:55:28.843Z,8.73
2023-05-24T22:57:57.035Z,6.37
2023-05-24T23:00:26.653Z,9.10
2023-05-24T23:02:55.124Z,10.53
2023-05-24T23:05:24.108Z,6.80
2023-05-24T23:07:52.599Z,8.67
2023-05-24T23:10:20.936Z,6.60
2023-05-24T23:12:49.144Z,9.83
2023-05-24T23:15:18.264Z,6.70
2023-05-24T23:17:48.246Z,11.10
2023-05-24T23:20:16.661Z,9.27
2023-05-24T23:22:44.879Z,8.00
2023-05-24T23:25:13.306Z,11.13
2023-05-24T23:27:41.952Z,9.03
2023-05-24T23:30:11.046Z,8.10
2023-05-24T23:32:39.346Z,9.13
2023-05-24T23:35:09.931Z,9.00
2023-05-24T23:37:38.202Z,12.70
2023-05-24T23:40:07.475Z,8.20
2023-05-24T23:42:36.345Z,12.23
2023-05-24T23:45:05.110Z,10.20
2023-05-24T23:47:33.523Z,10.60
2023-05-24T23:50:01.789Z,9.27
2023-05-24T23:52:31.443Z,9.90
2023-05-24T23:54:59.717Z,8.63
2023-05-24T23:57:30.863Z,8.60
2023-05-24T23:59:59.051Z,7.80
